In Rescue
 
Open Full Screen Window  High Contrast Mode
Wind Gusting 00 knots
03
October 19, 2020 7:41 PM EDT
Present Weather: Drizzle
Weather Information
Wind Direction
  170 °
Wind Speed
  03 kt (3 mph)
Wind Gust
  00 kt (0 mph)
Altimeter
30.29 in
Visibility
5 SM
Temperature
10° C
50° F
Dewpoint
08° C
46° F
Humidity
88%
Sky Condition
Overcast @ 6,000 ft
Scattered @ 4,500 ft
MVFR

METAR KEFK 192341Z AUTO 17003KT 5SM DZ SCT045 OVC060 10/08 A3029 RMK AO2

FAA Disclaimer: The data displayed is for advisory purposes only and is not to be used for flight planning or operations.